Forside
METAR-TAF:

METAR-TAF

Lufthavne :

Door County Cherryland Airport

Sturgeon Bay, Wisconsin, USA

Breddekreds: 44-51N, længdekreds: 087-25W, højde: 221 m

Aktuelle vejr

Denne rapport blev lavet for 36 minutter siden, kl. 16:56 UTC
Vind 13 kt fra vestsydvest med vindstød på up til 19 kt
Temperatur 4°C
Fugtighed 65%
Tryk 1008 hPa
Sigt: 16.1 km
skyfri

METAR: KSUE 231656Z AUTO 24013G19KT 10SM CLR 04/M02 A2978 RMK AO2 SLP090 T00391017

Tid: 11:32 (17:32 UTC)


TAF: fraværende

Vejrobservationer og prognoser fra mere end 4000 lufthavne (METAR og TAF).

De gule og røde prikker repræsenterer de meteorologiske stationer.

Flyt musen over at se navnet på stationen.

Så klik over at se vejr observationer og prognoser.

At skifte det kort: Klik på de grønne knapper med et sort kors for at zoome ind; på den grønne knap med en bindestreg for at zoome ud; eller på de grønne pile for tilstødende kort.


METAR-TAF: